sensor_id;sensor_type;location;lat;lon;timestamp;pressure;altitude;pressure_sealevel;temperature;humidity
3598;BME280;1813;52.016;8.714;2022-10-26T00:02:10;-16261.94;;;-139.71;77.51
3598;BME280;1813;52.016;8.714;2022-10-26T00:04:44;-16261.94;;;-139.71;77.69
3598;BME280;1813;52.016;8.714;2022-10-26T00:07:18;-16261.94;;;-139.71;77.34
3598;BME280;1813;52.016;8.714;2022-10-26T00:09:52;-16261.94;;;-139.71;77.16
3598;BME280;1813;52.016;8.714;2022-10-26T00:12:28;-16261.94;;;-139.71;77.72
3598;BME280;1813;52.016;8.714;2022-10-26T00:15:03;-16261.94;;;-139.71;78.22
3598;BME280;1813;52.016;8.714;2022-10-26T00:17:37;-16261.94;;;-139.71;78.53
3598;BME280;1813;52.016;8.714;2022-10-26T00:20:11;-16261.94;;;-139.71;78.43
3598;BME280;1813;52.016;8.714;2022-10-26T00:22:45;-16261.94;;;-139.71;78.39
3598;BME280;1813;52.016;8.714;2022-10-26T00:25:19;-16261.94;;;-139.71;77.80
3598;BME280;1813;52.016;8.714;2022-10-26T00:27:56;-16261.94;;;-139.71;77.86
3598;BME280;1813;52.016;8.714;2022-10-26T00:30:30;-16261.94;;;-139.71;77.88
3598;BME280;1813;52.016;8.714;2022-10-26T00:33:04;-16261.94;;;-139.71;77.92
3598;BME280;1813;52.016;8.714;2022-10-26T00:35:38;-16261.94;;;-139.71;77.76
3598;BME280;1813;52.016;8.714;2022-10-26T00:38:12;-16261.94;;;-139.71;77.85
3598;BME280;1813;52.016;8.714;2022-10-26T00:40:46;-16261.94;;;-139.71;78.29
3598;BME280;1813;52.016;8.714;2022-10-26T00:43:38;-16261.94;;;-139.71;78.90
3598;BME280;1813;52.016;8.714;2022-10-26T00:46:15;-16261.94;;;-139.71;79.85
3598;BME280;1813;52.016;8.714;2022-10-26T00:48:53;-16261.94;;;-139.71;80.62
3598;BME280;1813;52.016;8.714;2022-10-26T00:51:30;-16261.94;;;-139.71;80.82
3598;BME280;1813;52.016;8.714;2022-10-26T00:54:09;-16261.94;;;-139.71;80.97
3598;BME280;1813;52.016;8.714;2022-10-26T00:56:45;-16261.94;;;-139.71;81.29
3598;BME280;1813;52.016;8.714;2022-10-26T00:59:22;-16261.94;;;-139.71;80.92
3598;BME280;1813;52.016;8.714;2022-10-26T01:01:56;-16261.94;;;-139.71;80.92
3598;BME280;1813;52.016;8.714;2022-10-26T01:04:32;-16261.94;;;-139.71;80.84
3598;BME280;1813;52.016;8.714;2022-10-26T01:07:06;-16261.94;;;-139.71;81.00
3598;BME280;1813;52.016;8.714;2022-10-26T01:09:41;-16261.94;;;-139.71;81.25
3598;BME280;1813;52.016;8.714;2022-10-26T01:12:15;-16261.94;;;-139.71;81.76
3598;BME280;1813;52.016;8.714;2022-10-26T01:14:51;-16261.94;;;-139.71;82.24
3598;BME280;1813;52.016;8.714;2022-10-26T01:17:35;-16261.94;;;-139.71;82.45
3598;BME280;1813;52.016;8.714;2022-10-26T01:23:44;-16261.94;;;-139.71;82.12
3598;BME280;1813;52.016;8.714;2022-10-26T01:26:45;-16261.94;;;-139.71;82.44
3598;BME280;1813;52.016;8.714;2022-10-26T01:29:52;-16261.94;;;-139.71;82.56
3598;BME280;1813;52.016;8.714;2022-10-26T01:32:37;-16261.94;;;-139.71;82.54
3598;BME280;1813;52.016;8.714;2022-10-26T01:35:16;-16261.94;;;-139.71;82.67
3598;BME280;1813;52.016;8.714;2022-10-26T01:37:56;-16261.94;;;-139.71;82.51
3598;BME280;1813;52.016;8.714;2022-10-26T01:40:34;-16261.94;;;-139.71;82.61
3598;BME280;1813;52.016;8.714;2022-10-26T01:43:11;-16261.94;;;-139.71;82.50
3598;BME280;1813;52.016;8.714;2022-10-26T01:45:46;-16261.94;;;-139.71;82.16
3598;BME280;1813;52.016;8.714;2022-10-26T01:48:24;-16261.94;;;-139.71;82.15
3598;BME280;1813;52.016;8.714;2022-10-26T01:51:02;-16261.94;;;-139.71;82.50
3598;BME280;1813;52.016;8.714;2022-10-26T01:53:42;-16261.94;;;-139.71;82.58
3598;BME280;1813;52.016;8.714;2022-10-26T01:56:20;-16261.94;;;-139.71;82.74
3598;BME280;1813;52.016;8.714;2022-10-26T02:02:13;-16261.94;;;-139.71;82.56
3598;BME280;1813;52.016;8.714;2022-10-26T02:05:05;-16261.94;;;-139.71;82.74
3598;BME280;1813;52.016;8.714;2022-10-26T02:07:50;-16261.94;;;-139.71;82.94
3598;BME280;1813;52.016;8.714;2022-10-26T02:10:35;-16261.94;;;-139.71;83.08
3598;BME280;1813;52.016;8.714;2022-10-26T02:13:17;-16261.94;;;-139.71;82.97
3598;BME280;1813;52.016;8.714;2022-10-26T02:15:57;-16261.94;;;-139.71;82.64
3598;BME280;1813;52.016;8.714;2022-10-26T02:18:36;-16261.94;;;-139.71;82.87
3598;BME280;1813;52.016;8.714;2022-10-26T02:21:16;-16261.94;;;-139.71;82.74
3598;BME280;1813;52.016;8.714;2022-10-26T02:23:54;-16261.94;;;-139.71;82.77
3598;BME280;1813;52.016;8.714;2022-10-26T02:26:31;-16261.94;;;-139.71;83.17
3598;BME280;1813;52.016;8.714;2022-10-26T02:29:07;-16261.94;;;-139.71;82.96
3598;BME280;1813;52.016;8.714;2022-10-26T02:31:44;-16261.94;;;-139.71;83.04
3598;BME280;1813;52.016;8.714;2022-10-26T02:34:21;-16261.94;;;-139.71;83.14
3598;BME280;1813;52.016;8.714;2022-10-26T02:37:00;-16261.94;;;-139.71;83.04
3598;BME280;1813;52.016;8.714;2022-10-26T02:39:35;-16261.94;;;-139.71;83.19
3598;BME280;1813;52.016;8.714;2022-10-26T02:42:12;-16261.94;;;-139.71;83.26
3598;BME280;1813;52.016;8.714;2022-10-26T02:44:50;-16261.94;;;-139.71;83.24
3598;BME280;1813;52.016;8.714;2022-10-26T02:47:27;-16261.94;;;-139.71;83.25
3598;BME280;1813;52.016;8.714;2022-10-26T02:50:03;-16261.94;;;-139.71;82.94
3598;BME280;1813;52.016;8.714;2022-10-26T02:52:44;-16261.94;;;-139.71;82.63
3598;BME280;1813;52.016;8.714;2022-10-26T02:55:24;-16261.94;;;-139.71;82.49
3598;BME280;1813;52.016;8.714;2022-10-26T02:58:03;-16261.94;;;-139.71;82.12
3598;BME280;1813;52.016;8.714;2022-10-26T03:00:39;-16261.94;;;-139.71;82.30
3598;BME280;1813;52.016;8.714;2022-10-26T03:03:15;-16261.94;;;-139.71;82.28
3598;BME280;1813;52.016;8.714;2022-10-26T03:05:50;-16261.94;;;-139.71;82.58
3598;BME280;1813;52.016;8.714;2022-10-26T03:08:27;-16261.94;;;-139.71;82.89
3598;BME280;1813;52.016;8.714;2022-10-26T03:11:01;-16261.94;;;-139.71;83.14
3598;BME280;1813;52.016;8.714;2022-10-26T03:13:35;-16261.94;;;-139.71;83.17
3598;BME280;1813;52.016;8.714;2022-10-26T03:16:09;-16261.94;;;-139.71;82.93
3598;BME280;1813;52.016;8.714;2022-10-26T03:18:43;-16261.94;;;-139.71;83.07
3598;BME280;1813;52.016;8.714;2022-10-26T03:21:17;-16261.94;;;-139.71;82.92
3598;BME280;1813;52.016;8.714;2022-10-26T03:23:54;-16261.94;;;-139.71;82.67
3598;BME280;1813;52.016;8.714;2022-10-26T03:26:28;-16261.94;;;-139.71;82.35
3598;BME280;1813;52.016;8.714;2022-10-26T03:29:02;-16261.94;;;-139.71;82.35
3598;BME280;1813;52.016;8.714;2022-10-26T03:31:36;-16261.94;;;-139.71;82.12
3598;BME280;1813;52.016;8.714;2022-10-26T03:34:10;-16261.94;;;-139.71;81.82
3598;BME280;1813;52.016;8.714;2022-10-26T03:36:44;-16261.94;;;-139.71;81.72
3598;BME280;1813;52.016;8.714;2022-10-26T03:39:20;-16261.94;;;-139.71;81.32
3598;BME280;1813;52.016;8.714;2022-10-26T03:41:54;-16261.94;;;-139.71;80.13
3598;BME280;1813;52.016;8.714;2022-10-26T03:44:29;-16261.94;;;-139.71;79.60
3598;BME280;1813;52.016;8.714;2022-10-26T03:47:03;-16261.94;;;-139.71;79.48
3598;BME280;1813;52.016;8.714;2022-10-26T03:49:37;-16261.94;;;-139.71;79.49
3598;BME280;1813;52.016;8.714;2022-10-26T03:52:11;-16261.94;;;-139.71;79.46
3598;BME280;1813;52.016;8.714;2022-10-26T03:54:47;-16261.94;;;-139.71;79.62
3598;BME280;1813;52.016;8.714;2022-10-26T03:57:21;-16261.94;;;-139.71;79.89
3598;BME280;1813;52.016;8.714;2022-10-26T03:59:55;-16261.94;;;-139.71;80.25
3598;BME280;1813;52.016;8.714;2022-10-26T04:02:29;-16261.94;;;-139.71;80.46
3598;BME280;1813;52.016;8.714;2022-10-26T04:05:04;-16261.94;;;-139.71;80.54
3598;BME280;1813;52.016;8.714;2022-10-26T04:07:38;-16261.94;;;-139.71;80.75
3598;BME280;1813;52.016;8.714;2022-10-26T04:10:14;-16261.94;;;-139.71;81.15
3598;BME280;1813;52.016;8.714;2022-10-26T04:12:48;-16261.94;;;-139.71;81.96
3598;BME280;1813;52.016;8.714;2022-10-26T04:15:23;-16261.94;;;-139.71;82.66
3598;BME280;1813;52.016;8.714;2022-10-26T04:17:58;-16261.94;;;-139.71;83.01
3598;BME280;1813;52.016;8.714;2022-10-26T04:20:33;-16261.94;;;-139.71;83.13
3598;BME280;1813;52.016;8.714;2022-10-26T04:23:10;-16261.94;;;-139.71;83.21
3598;BME280;1813;52.016;8.714;2022-10-26T04:25:47;-16261.94;;;-139.71;83.16
3598;BME280;1813;52.016;8.714;2022-10-26T04:28:21;-16261.94;;;-139.71;83.35
3598;BME280;1813;52.016;8.714;2022-10-26T04:30:55;-16261.94;;;-139.71;83.60
3598;BME280;1813;52.016;8.714;2022-10-26T04:33:29;-16261.94;;;-139.71;83.76
3598;BME280;1813;52.016;8.714;2022-10-26T04:36:04;-16261.94;;;-139.71;84.02
3598;BME280;1813;52.016;8.714;2022-10-26T04:38:38;-16261.94;;;-139.71;84.33
3598;BME280;1813;52.016;8.714;2022-10-26T04:41:14;-16261.94;;;-139.71;84.43
3598;BME280;1813;52.016;8.714;2022-10-26T04:43:48;-16261.94;;;-139.71;84.52
3598;BME280;1813;52.016;8.714;2022-10-26T04:46:22;-16261.94;;;-139.71;84.67
3598;BME280;1813;52.016;8.714;2022-10-26T04:48:56;-16261.94;;;-139.71;84.92
3598;BME280;1813;52.016;8.714;2022-10-26T04:51:30;-16261.94;;;-139.71;85.04
3598;BME280;1813;52.016;8.714;2022-10-26T04:54:04;-16261.94;;;-139.71;85.29
3598;BME280;1813;52.016;8.714;2022-10-26T04:56:41;-16261.94;;;-139.71;85.46
3598;BME280;1813;52.016;8.714;2022-10-26T04:59:15;-16261.94;;;-139.71;85.82
3598;BME280;1813;52.016;8.714;2022-10-26T05:01:49;-16261.94;;;-139.71;85.85
3598;BME280;1813;52.016;8.714;2022-10-26T05:04:23;-16261.94;;;-139.71;85.84
3598;BME280;1813;52.016;8.714;2022-10-26T05:06:57;-16261.94;;;-139.71;85.87
3598;BME280;1813;52.016;8.714;2022-10-26T05:09:31;-16261.94;;;-139.71;85.97
3598;BME280;1813;52.016;8.714;2022-10-26T05:12:07;-16261.94;;;-139.71;86.14
3598;BME280;1813;52.016;8.714;2022-10-26T05:14:41;-16261.94;;;-139.71;86.40
3598;BME280;1813;52.016;8.714;2022-10-26T05:17:15;-16261.94;;;-139.71;86.50
3598;BME280;1813;52.016;8.714;2022-10-26T05:19:49;-16261.94;;;-139.71;86.32
3598;BME280;1813;52.016;8.714;2022-10-26T05:22:25;-16261.94;;;-139.71;86.46
3598;BME280;1813;52.016;8.714;2022-10-26T05:24:59;-16261.94;;;-139.71;86.67
3598;BME280;1813;52.016;8.714;2022-10-26T05:27:35;-16261.94;;;-139.71;86.66
3598;BME280;1813;52.016;8.714;2022-10-26T05:30:10;-16261.94;;;-139.71;86.80
3598;BME280;1813;52.016;8.714;2022-10-26T05:32:44;-16261.94;;;-139.71;87.02
3598;BME280;1813;52.016;8.714;2022-10-26T05:35:26;-16261.94;;;-139.71;87.25
3598;BME280;1813;52.016;8.714;2022-10-26T05:38:06;-16261.94;;;-139.71;87.30
3598;BME280;1813;52.016;8.714;2022-10-26T05:40:46;-16261.94;;;-139.71;87.07
3598;BME280;1813;52.016;8.714;2022-10-26T05:43:23;-16261.94;;;-139.71;87.04
3598;BME280;1813;52.016;8.714;2022-10-26T05:45:57;-16261.94;;;-139.71;86.87
3598;BME280;1813;52.016;8.714;2022-10-26T05:48:31;-16261.94;;;-139.71;86.81
3598;BME280;1813;52.016;8.714;2022-10-26T05:51:05;-16261.94;;;-139.71;86.74
3598;BME280;1813;52.016;8.714;2022-10-26T05:53:40;-16261.94;;;-139.71;86.62
3598;BME280;1813;52.016;8.714;2022-10-26T05:56:17;-16261.94;;;-139.71;86.41
3598;BME280;1813;52.016;8.714;2022-10-26T05:58:55;-16261.94;;;-139.71;86.52
3598;BME280;1813;52.016;8.714;2022-10-26T06:01:34;-16261.94;;;-139.71;86.47
3598;BME280;1813;52.016;8.714;2022-10-26T06:04:20;-16261.94;;;-139.71;86.49
3598;BME280;1813;52.016;8.714;2022-10-26T06:06:59;-16261.94;;;-139.71;86.29
3598;BME280;1813;52.016;8.714;2022-10-26T06:09:34;-16261.94;;;-139.71;86.24
3598;BME280;1813;52.016;8.714;2022-10-26T06:12:09;-16261.94;;;-139.71;85.91
3598;BME280;1813;52.016;8.714;2022-10-26T06:14:47;-16261.94;;;-139.71;85.42
3598;BME280;1813;52.016;8.714;2022-10-26T06:17:31;-16261.94;;;-139.71;85.36
3598;BME280;1813;52.016;8.714;2022-10-26T06:20:23;-16261.94;;;-139.71;85.54
3598;BME280;1813;52.016;8.714;2022-10-26T06:23:12;-16261.94;;;-139.71;85.56
3598;BME280;1813;52.016;8.714;2022-10-26T06:25:55;-16261.94;;;-139.71;85.74
3598;BME280;1813;52.016;8.714;2022-10-26T06:28:36;-16261.94;;;-139.71;85.67
3598;BME280;1813;52.016;8.714;2022-10-26T06:31:18;-16261.94;;;-139.71;85.88
3598;BME280;1813;52.016;8.714;2022-10-26T06:33:56;-16261.94;;;-139.71;85.86
3598;BME280;1813;52.016;8.714;2022-10-26T06:36:32;-16261.94;;;-139.71;86.25
3598;BME280;1813;52.016;8.714;2022-10-26T06:39:09;-16261.94;;;-139.71;86.45
3598;BME280;1813;52.016;8.714;2022-10-26T06:41:45;-16261.94;;;-139.71;86.59
3598;BME280;1813;52.016;8.714;2022-10-26T06:44:21;-16261.94;;;-139.71;86.64
3598;BME280;1813;52.016;8.714;2022-10-26T06:47:05;-16261.94;;;-139.71;86.65
3598;BME280;1813;52.016;8.714;2022-10-26T06:49:45;-16261.94;;;-139.71;86.72
3598;BME280;1813;52.016;8.714;2022-10-26T06:52:30;-16261.94;;;-139.71;86.94
3598;BME280;1813;52.016;8.714;2022-10-26T06:55:11;-16261.94;;;-139.71;86.80
3598;BME280;1813;52.016;8.714;2022-10-26T06:57:46;-16261.94;;;-139.71;86.96
3598;BME280;1813;52.016;8.714;2022-10-26T07:00:22;-16261.94;;;-139.71;86.89
3598;BME280;1813;52.016;8.714;2022-10-26T07:02:59;-16261.94;;;-139.71;86.75
3598;BME280;1813;52.016;8.714;2022-10-26T07:05:33;-16261.94;;;-139.71;86.87
3598;BME280;1813;52.016;8.714;2022-10-26T07:08:07;-16261.94;;;-139.71;86.92
3598;BME280;1813;52.016;8.714;2022-10-26T07:10:41;-16261.94;;;-139.71;86.83
3598;BME280;1813;52.016;8.714;2022-10-26T07:13:15;-16261.94;;;-139.71;86.91
3598;BME280;1813;52.016;8.714;2022-10-26T07:15:49;-16261.94;;;-139.71;87.04
3598;BME280;1813;52.016;8.714;2022-10-26T07:18:25;-16261.94;;;-139.71;86.99
3598;BME280;1813;52.016;8.714;2022-10-26T07:20:59;-16261.94;;;-139.71;87.32
3598;BME280;1813;52.016;8.714;2022-10-26T07:23:33;-16261.94;;;-139.71;87.26
3598;BME280;1813;52.016;8.714;2022-10-26T07:26:07;-16261.94;;;-139.71;87.51
3598;BME280;1813;52.016;8.714;2022-10-26T07:28:41;-16261.94;;;-139.71;87.74
3598;BME280;1813;52.016;8.714;2022-10-26T07:31:16;-16261.94;;;-139.71;87.79
3598;BME280;1813;52.016;8.714;2022-10-26T07:33:52;-16261.94;;;-139.71;88.07
3598;BME280;1813;52.016;8.714;2022-10-26T07:36:28;-16261.94;;;-139.71;88.27
3598;BME280;1813;52.016;8.714;2022-10-26T07:39:02;-16261.94;;;-139.71;88.37
3598;BME280;1813;52.016;8.714;2022-10-26T07:41:36;-16261.94;;;-139.71;88.80
3598;BME280;1813;52.016;8.714;2022-10-26T07:44:10;-16261.94;;;-139.71;88.71
3598;BME280;1813;52.016;8.714;2022-10-26T07:46:44;-16261.94;;;-139.71;88.41
3598;BME280;1813;52.016;8.714;2022-10-26T07:49:21;-16261.94;;;-139.71;88.24
3598;BME280;1813;52.016;8.714;2022-10-26T07:51:55;-16261.94;;;-139.71;88.17
3598;BME280;1813;52.016;8.714;2022-10-26T07:54:29;-16261.94;;;-139.71;87.96
3598;BME280;1813;52.016;8.714;2022-10-26T07:57:03;-16261.94;;;-139.71;87.88
3598;BME280;1813;52.016;8.714;2022-10-26T07:59:37;-16261.94;;;-139.71;87.73
3598;BME280;1813;52.016;8.714;2022-10-26T08:02:11;-16261.94;;;-139.71;87.65
3598;BME280;1813;52.016;8.714;2022-10-26T08:04:47;-16261.94;;;-139.71;89.29
3598;BME280;1813;52.016;8.714;2022-10-26T08:07:22;-16261.94;;;-139.71;90.49
3598;BME280;1813;52.016;8.714;2022-10-26T08:09:56;-16261.94;;;-139.71;89.13
3598;BME280;1813;52.016;8.714;2022-10-26T08:12:32;-16261.94;;;-139.71;87.17
3598;BME280;1813;52.016;8.714;2022-10-26T08:15:08;-16261.94;;;-139.71;86.00
3598;BME280;1813;52.016;8.714;2022-10-26T08:17:44;-16261.94;;;-139.71;85.34
3598;BME280;1813;52.016;8.714;2022-10-26T08:20:25;-16261.94;;;-139.71;86.49
3598;BME280;1813;52.016;8.714;2022-10-26T08:22:59;-16261.94;;;-139.71;86.62
3598;BME280;1813;52.016;8.714;2022-10-26T08:25:35;-16261.94;;;-139.71;86.40
3598;BME280;1813;52.016;8.714;2022-10-26T08:28:14;-16261.94;;;-139.71;84.86
3598;BME280;1813;52.016;8.714;2022-10-26T08:30:50;-16261.94;;;-139.71;83.76
3598;BME280;1813;52.016;8.714;2022-10-26T08:33:25;-16261.94;;;-139.71;83.51
3598;BME280;1813;52.016;8.714;2022-10-26T08:36:04;-16261.94;;;-139.71;83.66
3598;BME280;1813;52.016;8.714;2022-10-26T08:38:39;-16261.94;;;-139.71;83.66
3598;BME280;1813;52.016;8.714;2022-10-26T08:41:13;-16261.94;;;-139.71;83.98
3598;BME280;1813;52.016;8.714;2022-10-26T08:43:52;-16261.94;;;-139.71;84.21
3598;BME280;1813;52.016;8.714;2022-10-26T08:46:29;-16261.94;;;-139.71;84.24
3598;BME280;1813;52.016;8.714;2022-10-26T08:49:15;-16261.94;;;-139.71;84.36
3598;BME280;1813;52.016;8.714;2022-10-26T08:51:56;-16261.94;;;-139.71;84.51
3598;BME280;1813;52.016;8.714;2022-10-26T08:54:35;-16261.94;;;-139.71;84.66
3598;BME280;1813;52.016;8.714;2022-10-26T08:57:16;-16261.94;;;-139.71;84.81
3598;BME280;1813;52.016;8.714;2022-10-26T08:59:56;-16261.94;;;-139.71;84.96
3598;BME280;1813;52.016;8.714;2022-10-26T09:02:31;-16261.94;;;-139.71;84.94
3598;BME280;1813;52.016;8.714;2022-10-26T09:05:13;-16261.94;;;-139.71;84.61
3598;BME280;1813;52.016;8.714;2022-10-26T09:07:54;-16261.94;;;-139.71;84.46
3598;BME280;1813;52.016;8.714;2022-10-26T09:10:46;-16261.94;;;-139.71;84.58
3598;BME280;1813;52.016;8.714;2022-10-26T09:13:28;-16261.94;;;-139.71;84.64
3598;BME280;1813;52.016;8.714;2022-10-26T09:16:14;-16261.94;;;-139.71;84.64
3598;BME280;1813;52.016;8.714;2022-10-26T09:19:03;-16261.94;;;-139.71;85.06
3598;BME280;1813;52.016;8.714;2022-10-26T09:21:47;-16261.94;;;-139.71;85.32
3598;BME280;1813;52.016;8.714;2022-10-26T09:24:30;-16261.94;;;-139.71;85.47
3598;BME280;1813;52.016;8.714;2022-10-26T09:27:11;-16261.94;;;-139.71;85.16
3598;BME280;1813;52.016;8.714;2022-10-26T09:29:48;-16261.94;;;-139.71;84.64
3598;BME280;1813;52.016;8.714;2022-10-26T09:32:27;-16261.94;;;-139.71;84.75
3598;BME280;1813;52.016;8.714;2022-10-26T09:35:11;-16261.94;;;-139.71;84.48
3598;BME280;1813;52.016;8.714;2022-10-26T09:37:50;-16261.94;;;-139.71;84.45
3598;BME280;1813;52.016;8.714;2022-10-26T09:40:30;-16261.94;;;-139.71;84.29
3598;BME280;1813;52.016;8.714;2022-10-26T09:43:11;-16261.94;;;-139.71;84.31
3598;BME280;1813;52.016;8.714;2022-10-26T09:45:50;-16261.94;;;-139.71;84.43
3598;BME280;1813;52.016;8.714;2022-10-26T09:48:28;-16261.94;;;-139.71;84.67
3598;BME280;1813;52.016;8.714;2022-10-26T09:51:04;-16261.94;;;-139.71;84.30
3598;BME280;1813;52.016;8.714;2022-10-26T09:53:38;-16261.94;;;-139.71;83.44
3598;BME280;1813;52.016;8.714;2022-10-26T09:56:16;-16261.94;;;-139.71;81.99
3598;BME280;1813;52.016;8.714;2022-10-26T09:58:53;-16261.94;;;-139.71;79.48
3598;BME280;1813;52.016;8.714;2022-10-26T10:01:29;-16261.94;;;-139.71;77.47
3598;BME280;1813;52.016;8.714;2022-10-26T10:04:18;-16261.94;;;-139.71;76.42
3598;BME280;1813;52.016;8.714;2022-10-26T10:07:11;-16261.94;;;-139.71;75.58
3598;BME280;1813;52.016;8.714;2022-10-26T10:10:05;-16261.94;;;-139.71;74.50
3598;BME280;1813;52.016;8.714;2022-10-26T10:12:43;-16261.94;;;-139.71;73.87
3598;BME280;1813;52.016;8.714;2022-10-26T10:15:21;-16261.94;;;-139.71;71.85
3598;BME280;1813;52.016;8.714;2022-10-26T10:17:58;-16261.94;;;-139.71;70.23
3598;BME280;1813;52.016;8.714;2022-10-26T10:20:33;-16261.94;;;-139.71;69.34
3598;BME280;1813;52.016;8.714;2022-10-26T10:23:24;-16261.94;;;-139.71;67.78
3598;BME280;1813;52.016;8.714;2022-10-26T10:26:04;-16261.94;;;-139.71;65.62
3598;BME280;1813;52.016;8.714;2022-10-26T10:28:55;-16261.94;;;-139.71;65.97
3598;BME280;1813;52.016;8.714;2022-10-26T10:31:32;-16261.94;;;-139.71;66.59
3598;BME280;1813;52.016;8.714;2022-10-26T10:34:14;-16261.94;;;-139.71;66.94
3598;BME280;1813;52.016;8.714;2022-10-26T10:36:49;-16261.94;;;-139.71;67.03
3598;BME280;1813;52.016;8.714;2022-10-26T10:39:34;-16261.94;;;-139.71;66.37
3598;BME280;1813;52.016;8.714;2022-10-26T10:42:17;-16261.94;;;-139.71;65.68
3598;BME280;1813;52.016;8.714;2022-10-26T10:44:56;-16261.94;;;-139.71;65.27
3598;BME280;1813;52.016;8.714;2022-10-26T10:47:32;-16261.94;;;-139.71;63.96
3598;BME280;1813;52.016;8.714;2022-10-26T10:50:14;-16261.94;;;-139.71;63.11
3598;BME280;1813;52.016;8.714;2022-10-26T10:52:51;-16261.94;;;-139.71;63.68
3598;BME280;1813;52.016;8.714;2022-10-26T10:55:26;-16261.94;;;-139.71;63.33
3598;BME280;1813;52.016;8.714;2022-10-26T10:58:07;-16261.94;;;-139.71;61.84
3598;BME280;1813;52.016;8.714;2022-10-26T11:00:50;-16261.94;;;-139.71;61.65
3598;BME280;1813;52.016;8.714;2022-10-26T11:07:20;-16261.94;;;-139.71;61.79
3598;BME280;1813;52.016;8.714;2022-10-26T11:10:02;-16261.94;;;-139.71;61.12
3598;BME280;1813;52.016;8.714;2022-10-26T11:12:41;-16261.94;;;-139.71;60.61
3598;BME280;1813;52.016;8.714;2022-10-26T11:15:19;-16261.94;;;-139.71;60.58
3598;BME280;1813;52.016;8.714;2022-10-26T11:18:01;-16261.94;;;-139.71;59.99
3598;BME280;1813;52.016;8.714;2022-10-26T11:20:41;-16261.94;;;-139.71;59.89
3598;BME280;1813;52.016;8.714;2022-10-26T11:23:21;-16261.94;;;-139.71;59.34
3598;BME280;1813;52.016;8.714;2022-10-26T11:26:02;-16261.94;;;-139.71;59.41
3598;BME280;1813;52.016;8.714;2022-10-26T11:28:42;-16261.94;;;-139.71;57.80
3598;BME280;1813;52.016;8.714;2022-10-26T11:31:21;-16261.94;;;-139.71;56.95
3598;BME280;1813;52.016;8.714;2022-10-26T11:34:14;-16261.94;;;-139.71;57.62
3598;BME280;1813;52.016;8.714;2022-10-26T11:36:54;-16261.94;;;-139.71;55.82
3598;BME280;1813;52.016;8.714;2022-10-26T11:39:35;-16261.94;;;-139.71;55.11
3598;BME280;1813;52.016;8.714;2022-10-26T11:42:31;-16261.94;;;-139.71;54.63
3598;BME280;1813;52.016;8.714;2022-10-26T11:45:14;-16261.94;;;-139.71;54.86
3598;BME280;1813;52.016;8.714;2022-10-26T11:47:51;-16261.94;;;-139.71;56.22
3598;BME280;1813;52.016;8.714;2022-10-26T11:50:32;-16261.94;;;-139.71;55.74
3598;BME280;1813;52.016;8.714;2022-10-26T11:53:11;-16261.94;;;-139.71;54.68
3598;BME280;1813;52.016;8.714;2022-10-26T11:55:50;-16261.94;;;-139.71;53.64
3598;BME280;1813;52.016;8.714;2022-10-26T11:58:25;-16261.94;;;-139.71;53.48
3598;BME280;1813;52.016;8.714;2022-10-26T12:01:03;-16261.94;;;-139.71;53.70
3598;BME280;1813;52.016;8.714;2022-10-26T12:03:44;-16261.94;;;-139.71;53.60
3598;BME280;1813;52.016;8.714;2022-10-26T12:06:25;-16261.94;;;-139.71;53.42
3598;BME280;1813;52.016;8.714;2022-10-26T12:09:04;-16261.94;;;-139.71;52.58
3598;BME280;1813;52.016;8.714;2022-10-26T12:11:43;-16261.94;;;-139.71;52.22
3598;BME280;1813;52.016;8.714;2022-10-26T12:14:22;-16261.94;;;-139.71;51.40
3598;BME280;1813;52.016;8.714;2022-10-26T12:17:03;-16261.94;;;-139.71;50.40
3598;BME280;1813;52.016;8.714;2022-10-26T12:19:45;-16261.94;;;-139.71;50.53
3598;BME280;1813;52.016;8.714;2022-10-26T12:22:30;-16261.94;;;-139.71;50.20
3598;BME280;1813;52.016;8.714;2022-10-26T12:25:09;-16261.94;;;-139.71;49.83
3598;BME280;1813;52.016;8.714;2022-10-26T12:27:53;-16261.94;;;-139.71;49.77
3598;BME280;1813;52.016;8.714;2022-10-26T12:30:29;-16261.94;;;-139.71;48.32
3598;BME280;1813;52.016;8.714;2022-10-26T12:33:27;-16261.94;;;-139.71;49.54
3598;BME280;1813;52.016;8.714;2022-10-26T12:36:01;-16261.94;;;-139.71;50.90
3598;BME280;1813;52.016;8.714;2022-10-26T12:41:36;-16261.94;;;-139.71;52.33
3598;BME280;1813;52.016;8.714;2022-10-26T12:44:32;-16261.94;;;-139.71;53.26
3598;BME280;1813;52.016;8.714;2022-10-26T12:47:09;-16261.94;;;-139.71;54.52
3598;BME280;1813;52.016;8.714;2022-10-26T12:49:59;-16261.94;;;-139.71;54.48
3598;BME280;1813;52.016;8.714;2022-10-26T12:52:49;-16261.94;;;-139.71;55.36
3598;BME280;1813;52.016;8.714;2022-10-26T12:58:58;-16261.94;;;-139.71;56.92
3598;BME280;1813;52.016;8.714;2022-10-26T13:01:52;-16261.94;;;-139.71;55.79
3598;BME280;1813;52.016;8.714;2022-10-26T13:05:10;-16261.94;;;-139.71;55.89
3598;BME280;1813;52.016;8.714;2022-10-26T13:08:00;-16261.94;;;-139.71;55.33
3598;BME280;1813;52.016;8.714;2022-10-26T13:10:37;-16261.94;;;-139.71;54.59
3598;BME280;1813;52.016;8.714;2022-10-26T13:13:21;-16261.94;;;-139.71;54.98
3598;BME280;1813;52.016;8.714;2022-10-26T13:16:01;-16261.94;;;-139.71;55.43
3598;BME280;1813;52.016;8.714;2022-10-26T13:18:40;-16261.94;;;-139.71;55.69
3598;BME280;1813;52.016;8.714;2022-10-26T13:21:16;-16261.94;;;-139.71;55.63
3598;BME280;1813;52.016;8.714;2022-10-26T13:23:56;-16261.94;;;-139.71;55.71
3598;BME280;1813;52.016;8.714;2022-10-26T13:26:32;-16261.94;;;-139.71;56.01
3598;BME280;1813;52.016;8.714;2022-10-26T13:29:31;-16261.94;;;-139.71;55.59
3598;BME280;1813;52.016;8.714;2022-10-26T13:32:05;-16261.94;;;-139.71;56.29
3598;BME280;1813;52.016;8.714;2022-10-26T13:34:41;-16261.94;;;-139.71;56.32
3598;BME280;1813;52.016;8.714;2022-10-26T13:37:20;-16261.94;;;-139.71;56.70
3598;BME280;1813;52.016;8.714;2022-10-26T13:39:57;-16261.94;;;-139.71;56.15
3598;BME280;1813;52.016;8.714;2022-10-26T13:42:37;-16261.94;;;-139.71;55.16
3598;BME280;1813;52.016;8.714;2022-10-26T13:45:20;-16261.94;;;-139.71;55.97
3598;BME280;1813;52.016;8.714;2022-10-26T13:47:59;-16261.94;;;-139.71;56.56
3598;BME280;1813;52.016;8.714;2022-10-26T13:50:39;-16261.94;;;-139.71;56.40
3598;BME280;1813;52.016;8.714;2022-10-26T13:53:17;-16261.94;;;-139.71;55.40
3598;BME280;1813;52.016;8.714;2022-10-26T13:55:59;-16261.94;;;-139.71;55.53
3598;BME280;1813;52.016;8.714;2022-10-26T13:58:38;-16261.94;;;-139.71;55.75
3598;BME280;1813;52.016;8.714;2022-10-26T14:01:19;-16261.94;;;-139.71;55.79
3598;BME280;1813;52.016;8.714;2022-10-26T14:03:54;-16261.94;;;-139.71;55.36
3598;BME280;1813;52.016;8.714;2022-10-26T14:06:31;-16261.94;;;-139.71;55.47